createdAt,value
2023-04-23T00:02:12.114Z,15.30
2023-04-23T00:04:39.822Z,15.35
2023-04-23T00:07:07.267Z,18.05
2023-04-23T00:09:34.718Z,17.23
2023-04-23T00:12:02.207Z,15.93
2023-04-23T00:14:29.463Z,16.80
2023-04-23T00:16:56.669Z,18.42
2023-04-23T00:19:23.837Z,17.60
2023-04-23T00:21:51.360Z,20.25
2023-04-23T00:24:18.378Z,19.77
2023-04-23T00:26:45.582Z,18.67
2023-04-23T00:29:12.756Z,20.55
2023-04-23T00:31:39.865Z,20.23
2023-04-23T00:34:07.231Z,22.17
2023-04-23T00:36:34.237Z,22.52
2023-04-23T00:39:01.277Z,21.98
2023-04-23T00:41:28.496Z,21.58
2023-04-23T00:43:57.914Z,24.80
2023-04-23T00:46:26.808Z,22.60
2023-04-23T00:48:53.905Z,21.85
2023-04-23T00:51:22.983Z,24.33
2023-04-23T00:53:50.119Z,22.55
2023-04-23T00:56:18.105Z,23.50
2023-04-23T00:58:45.722Z,23.83
2023-04-23T01:01:13.817Z,24.67
2023-04-23T01:03:42.385Z,24.90
2023-04-23T01:06:09.685Z,27.05
2023-04-23T01:08:39.189Z,27.10
2023-04-23T01:11:06.363Z,26.60
2023-04-23T01:13:33.962Z,26.42
2023-04-23T01:16:01.199Z,25.40
2023-04-23T01:18:29.584Z,26.42
2023-04-23T01:20:56.642Z,25.65
2023-04-23T01:23:23.797Z,25.38
2023-04-23T01:25:50.919Z,25.63
2023-04-23T01:28:18.013Z,27.45
2023-04-23T01:30:45.965Z,27.17
2023-04-23T01:33:13.287Z,27.25
2023-04-23T01:35:41.579Z,28.50
2023-04-23T01:38:11.828Z,25.52
2023-04-23T01:40:38.887Z,26.30
2023-04-23T01:43:06.563Z,27.73
2023-04-23T01:45:33.789Z,26.88
2023-04-23T01:48:01.652Z,24.92
2023-04-23T01:50:29.858Z,24.23
2023-04-23T01:52:56.991Z,26.35
2023-04-23T01:55:24.033Z,26.15
2023-04-23T01:57:51.634Z,27.38
2023-04-23T02:00:18.922Z,25.42
2023-04-23T02:02:46.169Z,26.17
2023-04-23T02:05:14.622Z,27.63
2023-04-23T02:07:42.217Z,27.88
2023-04-23T02:10:09.804Z,25.52
2023-04-23T02:12:37.486Z,27.50
2023-04-23T02:15:05.178Z,26.92
2023-04-23T02:17:32.609Z,29.75
2023-04-23T02:19:59.673Z,28.08
2023-04-23T02:22:26.794Z,31.13
2023-04-23T02:24:54.071Z,31.10
2023-04-23T02:27:21.640Z,32.00
2023-04-23T02:29:49.503Z,31.58
2023-04-23T02:32:16.657Z,27.58
2023-04-23T02:34:43.817Z,31.77
2023-04-23T02:37:11.931Z,28.98
2023-04-23T02:39:39.261Z,30.45
2023-04-23T02:42:06.615Z,30.25
2023-04-23T02:44:33.869Z,30.90
2023-04-23T02:47:01.305Z,31.75
2023-04-23T02:49:28.354Z,33.15
2023-04-23T02:51:55.498Z,29.15
2023-04-23T02:54:22.683Z,31.08
2023-04-23T02:56:49.745Z,29.83
2023-04-23T02:59:16.840Z,35.00
2023-04-23T03:01:44.028Z,30.38
2023-04-23T03:04:12.267Z,32.15
2023-04-23T03:06:39.493Z,34.40
2023-04-23T03:09:06.695Z,31.08
2023-04-23T03:11:34.505Z,34.53
2023-04-23T03:14:01.541Z,32.50
2023-04-23T03:16:29.346Z,32.35
2023-04-23T03:18:56.460Z,32.35
2023-04-23T03:21:23.534Z,30.58
2023-04-23T03:23:50.779Z,33.20
2023-04-23T03:26:17.849Z,30.85
2023-04-23T03:28:45.105Z,30.45
2023-04-23T03:31:12.222Z,33.10
2023-04-23T03:33:39.301Z,28.45
2023-04-23T03:36:06.530Z,30.50
2023-04-23T03:38:33.587Z,29.48
2023-04-23T03:41:00.679Z,29.15
2023-04-23T03:43:27.872Z,28.02
2023-04-23T03:45:54.967Z,28.10
2023-04-23T03:48:22.036Z,27.45
2023-04-23T03:50:49.230Z,28.10
2023-04-23T03:53:17.656Z,29.60
2023-04-23T03:55:44.902Z,28.38
2023-04-23T03:58:12.032Z,27.70
2023-04-23T04:00:39.039Z,28.45
2023-04-23T04:03:06.270Z,29.75
2023-04-23T04:05:33.571Z,30.88
2023-04-23T04:08:01.678Z,30.23
2023-04-23T04:10:28.779Z,30.25
2023-04-23T04:12:56.188Z,31.02
2023-04-23T04:15:23.420Z,30.85
2023-04-23T04:17:50.525Z,32.72
2023-04-23T04:20:17.643Z,32.90
2023-04-23T04:22:44.762Z,33.53
2023-04-23T04:25:12.274Z,30.52
2023-04-23T04:27:41.443Z,32.97
2023-04-23T04:30:09.187Z,32.45
2023-04-23T04:32:38.635Z,31.02
2023-04-23T04:35:06.130Z,30.88
2023-04-23T04:37:33.681Z,31.83
2023-04-23T04:40:01.486Z,31.70
2023-04-23T04:42:28.592Z,31.10
2023-04-23T04:44:58.207Z,31.63
2023-04-23T04:47:25.435Z,29.83
2023-04-23T04:49:52.707Z,30.52
2023-04-23T04:52:19.913Z,27.60
2023-04-23T04:54:46.992Z,30.38
2023-04-23T04:57:14.062Z,29.98
2023-04-23T04:59:41.489Z,31.58
2023-04-23T05:02:08.785Z,29.77
2023-04-23T05:04:35.994Z,29.70
2023-04-23T05:07:03.115Z,30.25
2023-04-23T05:09:30.320Z,29.85
2023-04-23T05:11:57.927Z,27.52
2023-04-23T05:14:26.538Z,28.00
2023-04-23T05:16:53.679Z,29.25
2023-04-23T05:19:20.852Z,28.55
2023-04-23T05:21:47.927Z,29.17
2023-04-23T05:24:14.989Z,28.27
2023-04-23T05:26:42.404Z,26.45
2023-04-23T05:29:09.423Z,27.65
2023-04-23T05:31:36.549Z,28.45
2023-04-23T05:34:03.597Z,27.00
2023-04-23T05:36:31.259Z,27.77
2023-04-23T05:38:58.321Z,30.30
2023-04-23T05:41:25.968Z,29.08
2023-04-23T05:43:53.004Z,29.38
2023-04-23T05:46:20.215Z,28.48
2023-04-23T05:48:47.271Z,30.52
2023-04-23T05:51:14.346Z,27.75
2023-04-23T05:53:41.408Z,28.77
2023-04-23T05:56:08.406Z,28.67
2023-04-23T05:58:35.509Z,29.58
2023-04-23T06:01:02.978Z,24.92
2023-04-23T06:03:30.440Z,28.35
2023-04-23T06:05:57.719Z,27.20
2023-04-23T06:08:25.311Z,26.40
2023-04-23T06:10:52.537Z,26.73
2023-04-23T06:13:19.596Z,26.88
2023-04-23T06:15:46.696Z,27.20
2023-04-23T06:18:13.736Z,23.23
2023-04-23T06:20:41.058Z,19.95
2023-04-23T06:23:08.095Z,17.73
2023-04-23T06:25:35.198Z,17.23
2023-04-23T06:28:02.309Z,17.20
2023-04-23T06:30:29.404Z,14.63
2023-04-23T06:32:56.627Z,13.20
2023-04-23T06:35:23.793Z,14.15
2023-04-23T06:37:50.842Z,13.18
2023-04-23T06:40:18.011Z,14.18
2023-04-23T06:42:45.785Z,13.65
2023-04-23T06:45:12.938Z,13.65
2023-04-23T06:47:40.007Z,14.00
2023-04-23T06:50:08.296Z,14.18
2023-04-23T06:52:35.818Z,13.02
2023-04-23T06:55:02.887Z,12.27
2023-04-23T06:57:29.965Z,12.88
2023-04-23T06:59:57.027Z,12.23
2023-04-23T07:02:24.196Z,11.40
2023-04-23T07:04:51.506Z,13.05
2023-04-23T07:07:18.616Z,11.73
2023-04-23T07:09:45.826Z,13.13
2023-04-23T07:12:12.908Z,11.43
2023-04-23T07:14:40.161Z,11.23
2023-04-23T07:17:07.347Z,12.00
2023-04-23T07:19:34.426Z,11.63
2023-04-23T07:22:01.497Z,10.90
2023-04-23T07:24:28.594Z,10.77
2023-04-23T07:26:55.766Z,9.80
2023-04-23T07:29:22.927Z,10.10
2023-04-23T07:31:50.035Z,10.30
2023-04-23T07:34:17.093Z,9.88
2023-04-23T07:36:44.168Z,9.77
2023-04-23T07:39:11.307Z,9.98
2023-04-23T07:44:05.687Z,8.75
2023-04-23T07:46:32.750Z,9.35
2023-04-23T07:48:59.909Z,9.27
2023-04-23T07:51:27.073Z,9.35
2023-04-23T07:53:54.569Z,9.00
2023-04-23T07:56:22.386Z,8.55
2023-04-23T07:58:49.527Z,8.77
2023-04-23T08:01:16.699Z,8.48
2023-04-23T08:03:43.993Z,8.90
2023-04-23T08:06:12.229Z,8.20
2023-04-23T08:08:39.632Z,8.57
2023-04-23T08:11:07.286Z,8.38
2023-04-23T08:13:34.538Z,9.18
2023-04-23T08:16:01.726Z,8.05
2023-04-23T08:18:28.862Z,8.00
2023-04-23T08:20:59.401Z,8.52
2023-04-23T08:23:26.542Z,7.30
2023-04-23T08:25:53.680Z,6.80
2023-04-23T08:28:20.682Z,7.28
2023-04-23T08:30:47.819Z,7.00
2023-04-23T08:33:15.207Z,7.03
2023-04-23T08:35:42.332Z,7.30
2023-04-23T08:38:09.344Z,6.50
2023-04-23T08:40:37.823Z,5.90
2023-04-23T08:43:10.691Z,6.53
2023-04-23T08:45:41.643Z,4.78
2023-04-23T08:48:10.948Z,5.80
2023-04-23T08:50:39.517Z,5.60
2023-04-23T08:53:06.988Z,5.30
2023-04-23T08:55:35.952Z,5.07
2023-04-23T08:58:06.258Z,4.65
2023-04-23T09:00:34.792Z,4.07
2023-04-23T09:03:02.203Z,4.88
2023-04-23T09:05:29.481Z,4.03
2023-04-23T09:07:57.367Z,4.38
2023-04-23T09:10:24.681Z,4.80
2023-04-23T09:12:51.786Z,4.68
2023-04-23T09:15:18.923Z,4.40
2023-04-23T09:17:46.756Z,4.05
2023-04-23T09:20:14.641Z,3.72
2023-04-23T09:22:48.978Z,3.70
2023-04-23T09:25:17.754Z,3.47
2023-04-23T09:27:46.118Z,3.72
2023-04-23T09:30:13.686Z,3.80
2023-04-23T09:32:42.360Z,3.72
2023-04-23T09:35:22.090Z,3.22
2023-04-23T09:37:49.890Z,3.35
2023-04-23T09:40:18.011Z,2.83
2023-04-23T09:42:58.228Z,2.95
2023-04-23T09:45:25.926Z,3.05
2023-04-23T09:47:56.968Z,3.63
2023-04-23T09:50:32.502Z,3.00
2023-04-23T09:52:59.683Z,3.13
2023-04-23T09:55:37.406Z,2.78
2023-04-23T09:58:04.998Z,2.38
2023-04-23T10:00:36.347Z,2.30
2023-04-23T10:05:40.668Z,2.53
2023-04-23T10:08:17.725Z,2.35
2023-04-23T10:11:02.457Z,2.13
2023-04-23T10:13:33.941Z,1.80
2023-04-23T10:16:13.996Z,1.98
2023-04-23T10:18:45.760Z,2.40
2023-04-23T10:21:13.156Z,2.33
2023-04-23T10:23:41.285Z,1.52
2023-04-23T10:26:09.407Z,1.55
2023-04-23T10:28:36.725Z,1.35
2023-04-23T10:31:04.440Z,1.17
2023-04-23T10:33:39.954Z,1.30
2023-04-23T10:38:54.603Z,1.33
2023-04-23T10:41:26.598Z,2.00
2023-04-23T10:43:53.961Z,1.80
2023-04-23T10:46:32.353Z,1.85
2023-04-23T10:49:16.456Z,2.05
2023-04-23T10:52:17.788Z,1.45
2023-04-23T10:54:34.238Z,1.02
2023-04-23T10:57:03.043Z,1.00
2023-04-23T10:59:36.684Z,1.10
2023-04-23T11:02:07.879Z,1.45
2023-04-23T11:07:06.787Z,1.27
2023-04-23T11:09:37.906Z,1.30
2023-04-23T11:12:09.231Z,1.55
2023-04-23T11:17:06.870Z,1.15
2023-04-23T11:19:37.271Z,1.23
2023-04-23T11:22:04.531Z,1.30
2023-04-23T11:24:32.771Z,1.60
2023-04-23T11:27:01.184Z,1.38
2023-04-23T11:29:29.167Z,1.40
2023-04-23T11:34:27.044Z,1.30
2023-04-23T11:36:54.768Z,1.23
2023-04-23T11:39:24.153Z,1.67
2023-04-23T11:41:52.392Z,1.52
2023-04-23T11:44:21.254Z,1.40
2023-04-23T11:46:49.371Z,1.27
2023-04-23T11:49:17.404Z,0.98
2023-04-23T11:51:45.351Z,1.05
2023-04-23T11:54:13.647Z,1.08
2023-04-23T11:56:41.685Z,0.73
2023-04-23T11:59:09.474Z,1.40
2023-04-23T12:02:03.089Z,0.90
2023-04-23T12:04:32.375Z,1.10
2023-04-23T12:07:00.092Z,0.82
2023-04-23T12:09:28.564Z,0.88
2023-04-23T12:11:58.083Z,1.23
2023-04-23T12:14:29.865Z,1.00
2023-04-23T12:16:57.623Z,0.90
2023-04-23T12:19:28.366Z,1.25
2023-04-23T12:21:56.931Z,0.90
2023-04-23T12:24:24.806Z,1.00
2023-04-23T12:26:54.482Z,1.50
2023-04-23T12:29:22.383Z,0.95
2023-04-23T12:31:50.731Z,0.60
2023-04-23T12:34:17.963Z,0.60
2023-04-23T12:36:46.491Z,0.70
2023-04-23T12:39:25.746Z,1.20
2023-04-23T12:41:57.793Z,0.95
2023-04-23T12:44:24.895Z,0.80
2023-04-23T12:46:57.463Z,0.90
2023-04-23T12:49:25.181Z,0.80
2023-04-23T12:51:52.777Z,1.00
2023-04-23T12:54:19.907Z,0.68
2023-04-23T12:56:46.914Z,0.73
2023-04-23T12:59:13.983Z,0.98
2023-04-23T13:01:41.683Z,0.93
2023-04-23T13:04:08.858Z,0.70
2023-04-23T13:06:36.014Z,0.63
2023-04-23T13:09:05.267Z,0.60
2023-04-23T13:11:32.711Z,0.60
2023-04-23T13:13:59.719Z,0.57
2023-04-23T13:16:26.860Z,0.93
2023-04-23T13:18:54.015Z,0.60
2023-04-23T13:21:21.039Z,0.77
2023-04-23T13:23:48.102Z,0.98
2023-04-23T13:26:15.424Z,0.90
2023-04-23T13:28:42.565Z,0.77
2023-04-23T13:31:11.911Z,0.98
2023-04-23T13:33:39.411Z,0.50
2023-04-23T13:36:06.914Z,0.43
2023-04-23T13:38:34.095Z,0.60
2023-04-23T13:41:01.171Z,0.70
2023-04-23T13:43:28.174Z,0.82
2023-04-23T13:45:55.313Z,0.60
2023-04-23T13:48:28.580Z,0.60
2023-04-23T13:50:56.124Z,0.80
2023-04-23T13:53:23.173Z,0.90
2023-04-23T13:55:50.272Z,0.88
2023-04-23T13:58:17.451Z,0.80
2023-04-23T14:00:45.643Z,1.05
2023-04-23T14:03:12.830Z,0.60
2023-04-23T14:05:39.953Z,0.60
2023-04-23T14:08:06.999Z,0.50
2023-04-23T14:10:34.784Z,0.70
2023-04-23T14:13:02.745Z,0.60
2023-04-23T14:15:29.806Z,1.08
2023-04-23T14:17:56.985Z,0.88
2023-04-23T14:20:24.050Z,1.52
2023-04-23T14:22:51.795Z,0.50
2023-04-23T14:25:45.020Z,0.52
2023-04-23T14:28:24.922Z,0.40
2023-04-23T14:30:55.257Z,0.70
2023-04-23T14:33:22.387Z,0.57
2023-04-23T14:35:49.462Z,1.05
2023-04-23T14:38:16.477Z,0.73
2023-04-23T14:40:43.513Z,0.60
2023-04-23T14:43:15.480Z,0.40
2023-04-23T14:45:43.369Z,0.75
2023-04-23T14:48:10.581Z,0.65
2023-04-23T14:50:37.638Z,0.60
2023-04-23T14:53:07.103Z,0.60
2023-04-23T14:55:34.445Z,0.80
2023-04-23T14:58:01.626Z,0.63
2023-04-23T15:00:29.016Z,0.50
2023-04-23T15:02:57.275Z,0.70
2023-04-23T15:05:25.197Z,0.80
2023-04-23T15:07:53.252Z,0.90
2023-04-23T15:10:23.127Z,0.88
2023-04-23T15:12:56.693Z,0.70
2023-04-23T15:15:36.986Z,0.88
2023-04-23T15:18:11.358Z,0.68
2023-04-23T15:20:38.528Z,0.57
2023-04-23T15:23:05.776Z,0.93
2023-04-23T15:25:34.254Z,0.50
2023-04-23T15:28:01.851Z,0.55
2023-04-23T15:30:29.493Z,0.70
2023-04-23T15:32:56.849Z,0.40
2023-04-23T15:35:24.299Z,0.70
2023-04-23T15:37:51.412Z,0.40
2023-04-23T15:40:18.786Z,0.40
2023-04-23T15:42:45.928Z,0.50
2023-04-23T15:45:13.343Z,0.40
2023-04-23T15:47:42.051Z,0.60
2023-04-23T15:50:10.103Z,0.30
2023-04-23T15:52:37.852Z,0.50
2023-04-23T15:55:05.164Z,0.50
2023-04-23T15:57:32.252Z,0.70
2023-04-23T15:59:59.375Z,0.60
2023-04-23T16:02:27.258Z,0.70
2023-04-23T16:04:54.510Z,0.90
2023-04-23T16:07:21.575Z,0.57
2023-04-23T16:09:48.920Z,0.60
2023-04-23T16:12:15.953Z,0.80
2023-04-23T16:14:43.074Z,0.70
2023-04-23T16:17:10.706Z,0.50
2023-04-23T16:19:38.089Z,0.40
2023-04-23T16:22:05.164Z,0.50
2023-04-23T16:24:32.388Z,0.50
2023-04-23T16:26:59.459Z,0.50
2023-04-23T16:29:26.591Z,0.50
2023-04-23T16:31:53.738Z,1.30
2023-04-23T16:34:20.811Z,0.85
2023-04-23T16:36:47.845Z,0.40
2023-04-23T16:39:15.474Z,1.00
2023-04-23T16:41:42.545Z,0.90
2023-04-23T16:44:09.577Z,0.77
2023-04-23T16:46:36.721Z,0.80
2023-04-23T16:49:04.453Z,0.70
2023-04-23T16:51:32.441Z,0.60
2023-04-23T16:53:59.648Z,0.52
2023-04-23T16:56:26.913Z,0.55
2023-04-23T16:58:54.066Z,0.55
2023-04-23T17:01:21.229Z,0.57
2023-04-23T17:03:48.584Z,0.60
2023-04-23T17:06:21.945Z,0.70
2023-04-23T17:08:48.981Z,0.93
2023-04-23T17:11:16.067Z,0.95
2023-04-23T17:13:43.672Z,0.70
2023-04-23T17:16:11.015Z,0.68
2023-04-23T17:18:38.141Z,0.80
2023-04-23T17:21:05.347Z,0.80
2023-04-23T17:23:32.444Z,1.10
2023-04-23T17:25:59.541Z,0.77
2023-04-23T17:28:26.692Z,1.00
2023-04-23T17:30:55.737Z,1.00
2023-04-23T17:33:23.416Z,0.90
2023-04-23T17:35:52.037Z,1.42
2023-04-23T17:38:20.696Z,1.15
2023-04-23T17:40:48.293Z,1.02
2023-04-23T17:43:15.506Z,0.90
2023-04-23T17:45:43.160Z,0.70
2023-04-23T17:48:10.248Z,1.05
2023-04-23T17:50:37.339Z,0.82
2023-04-23T17:53:04.554Z,1.05
2023-04-23T17:55:32.973Z,1.00
2023-04-23T17:58:05.097Z,0.68
2023-04-23T18:00:35.970Z,0.70
2023-04-23T18:03:04.118Z,0.88
2023-04-23T18:05:31.395Z,0.90
2023-04-23T18:07:58.652Z,0.93
2023-04-23T18:10:26.186Z,1.13
2023-04-23T18:12:53.332Z,1.00
2023-04-23T18:15:20.468Z,1.27
2023-04-23T18:17:47.681Z,0.77
2023-04-23T18:20:16.292Z,0.93
2023-04-23T18:22:44.262Z,1.00
2023-04-23T18:25:12.518Z,0.90
2023-04-23T18:27:40.037Z,1.00
2023-04-23T18:30:08.275Z,0.98
2023-04-23T18:32:40.041Z,1.23
2023-04-23T18:35:08.156Z,0.90
2023-04-23T18:37:48.842Z,1.10
2023-04-23T18:40:15.947Z,1.13
2023-04-23T18:42:43.030Z,0.90
2023-04-23T18:45:10.680Z,1.20
2023-04-23T18:47:39.421Z,1.70
2023-04-23T18:50:10.061Z,1.70
2023-04-23T18:52:37.147Z,1.75
2023-04-23T18:55:04.378Z,1.20
2023-04-23T18:57:31.450Z,2.10
2023-04-23T18:59:58.586Z,1.77
2023-04-23T19:02:35.290Z,1.50
2023-04-23T19:05:03.415Z,1.10
2023-04-23T19:07:30.503Z,1.30
2023-04-23T19:09:57.507Z,1.92
2023-04-23T19:12:24.572Z,2.17
2023-04-23T19:14:51.600Z,1.58
2023-04-23T19:17:19.024Z,2.58
2023-04-23T19:19:46.304Z,2.80
2023-04-23T19:22:13.358Z,2.10
2023-04-23T19:24:40.406Z,1.92
2023-04-23T19:27:07.656Z,2.38
2023-04-23T19:29:34.693Z,2.97
2023-04-23T19:32:01.721Z,2.60
2023-04-23T19:34:28.820Z,2.67
2023-04-23T19:36:55.857Z,2.05
2023-04-23T19:39:23.554Z,2.05
2023-04-23T19:41:50.872Z,1.65
2023-04-23T19:44:17.889Z,2.10
2023-04-23T19:46:45.076Z,1.80
2023-04-23T19:49:12.226Z,1.92
2023-04-23T19:51:40.090Z,2.20
2023-04-23T19:54:07.469Z,2.50
2023-04-23T19:56:34.554Z,2.05
2023-04-23T19:59:01.600Z,2.20
2023-04-23T20:01:29.906Z,2.67
2023-04-23T20:03:57.255Z,2.28
2023-04-23T20:06:24.373Z,2.60
2023-04-23T20:09:07.756Z,2.58
2023-04-23T20:11:35.979Z,2.80
2023-04-23T20:14:03.589Z,3.00
2023-04-23T20:16:30.844Z,2.13
2023-04-23T20:18:58.016Z,2.88
2023-04-23T20:21:25.125Z,2.95
2023-04-23T20:23:52.469Z,2.95
2023-04-23T20:26:20.217Z,3.03
2023-04-23T20:28:48.277Z,2.92
2023-04-23T20:31:15.604Z,3.20
2023-04-23T20:33:42.618Z,2.20
2023-04-23T20:36:10.800Z,2.28
2023-04-23T20:38:38.969Z,2.05
2023-04-23T20:41:10.067Z,1.67
2023-04-23T20:43:40.601Z,1.80
2023-04-23T20:46:09.307Z,2.17
2023-04-23T20:48:36.970Z,1.73
2023-04-23T20:51:04.126Z,2.20
2023-04-23T20:53:31.321Z,1.85
2023-04-23T20:55:58.465Z,2.03
2023-04-23T20:58:25.563Z,2.38
2023-04-23T21:00:52.739Z,1.85
2023-04-23T21:03:19.905Z,2.40
2023-04-23T21:05:47.059Z,1.80
2023-04-23T21:08:14.143Z,2.25
2023-04-23T21:10:41.888Z,2.42
2023-04-23T21:13:10.880Z,2.58
2023-04-23T21:15:38.520Z,2.85
2023-04-23T21:18:05.898Z,2.70
2023-04-23T21:20:33.113Z,2.92
2023-04-23T21:23:00.142Z,3.33
2023-04-23T21:25:27.188Z,2.85
2023-04-23T21:27:58.613Z,3.30
2023-04-23T21:30:33.846Z,2.88
2023-04-23T21:33:00.909Z,2.53
2023-04-23T21:35:28.022Z,3.03
2023-04-23T21:37:55.012Z,2.95
2023-04-23T21:40:22.040Z,3.13
2023-04-23T21:42:50.026Z,3.03
2023-04-23T21:45:17.596Z,3.15
2023-04-23T21:47:44.807Z,3.03
2023-04-23T21:50:12.115Z,2.00
2023-04-23T21:52:39.272Z,2.20
2023-04-23T21:55:06.606Z,2.10
2023-04-23T21:57:34.312Z,1.92
2023-04-23T22:00:01.375Z,2.63
2023-04-23T22:02:28.664Z,2.83
2023-04-23T22:04:55.818Z,2.72
2023-04-23T22:07:23.313Z,2.58
2023-04-23T22:09:51.101Z,2.40
2023-04-23T22:12:18.182Z,2.50
2023-04-23T22:14:45.235Z,3.38
2023-04-23T22:17:12.385Z,2.78
2023-04-23T22:19:39.509Z,3.00
2023-04-23T22:22:06.603Z,2.35
2023-04-23T22:24:33.632Z,2.40
2023-04-23T22:27:01.916Z,2.42
2023-04-23T22:29:29.432Z,1.77
2023-04-23T22:31:56.475Z,2.03
2023-04-23T22:34:24.865Z,1.30
2023-04-23T22:36:51.981Z,1.10
2023-04-23T22:39:19.010Z,1.00
2023-04-23T22:41:46.076Z,0.70
2023-04-23T22:44:13.117Z,1.10
2023-04-23T22:46:40.489Z,0.70
2023-04-23T22:49:10.946Z,0.65
2023-04-23T22:51:39.126Z,0.77
2023-04-23T22:54:06.199Z,0.70
2023-04-23T22:56:34.198Z,0.85
2023-04-23T22:59:01.287Z,0.75
2023-04-23T23:01:28.365Z,0.50
2023-04-23T23:03:55.498Z,0.70
2023-04-23T23:06:22.569Z,0.60
2023-04-23T23:08:49.730Z,0.47
2023-04-23T23:11:17.162Z,0.60
2023-04-23T23:13:45.299Z,0.60
2023-04-23T23:16:12.379Z,0.55
2023-04-23T23:18:39.561Z,0.80
2023-04-23T23:21:06.684Z,0.70
2023-04-23T23:23:33.876Z,0.50
2023-04-23T23:26:00.916Z,0.63
2023-04-23T23:28:27.984Z,0.60
2023-04-23T23:30:55.517Z,0.60
2023-04-23T23:33:22.907Z,0.50
2023-04-23T23:35:50.019Z,0.70
2023-04-23T23:38:17.124Z,0.70
2023-04-23T23:40:44.131Z,0.70
2023-04-23T23:43:11.520Z,0.90
2023-04-23T23:45:38.670Z,0.90
2023-04-23T23:48:06.063Z,1.10
2023-04-23T23:50:33.754Z,0.73
2023-04-23T23:53:00.803Z,0.65
2023-04-23T23:55:27.959Z,0.80
2023-04-23T23:57:55.381Z,0.80
